Ana Sayfa
METAR-TAF:

METAR-TAF

Havaalanları :

Tena, Ekvador

Enlem: 01-03-35S, Boylam: 77-35-00W, yükseklik: 376 m

Güncel hava durumu gözlemi

Rapor saat 22:00 UTC de 34 dakika önce yapıldı.
Sakin rüzgar
Sıcaklık 28°C
Nem 70%
Basınç 1014 hPa
Görüş mesafesi 10 km veya daha fazla
2000 ft yükseklikte parçalı bulutlu
Civarda sağanaklar

METAR: SEJD 172200Z 00000KT 9999 VCSH SCT020 28/22 Q1014 A2995

Saat: 17:34 (22:34 UTC)


TAF: eksik

4.000'den fazla havaalanı için hava durumu gözlemleri ve tahminleri (METAR ve TAF raporları).

Kullanılabilir istasyonlar harita üzerinde sarı ve kırmızı noktalarla gösterilir.

İstasyonun adını görmek için fareyi noktanın üzerinde gezdirin.

Sonrasında hava gözlem ve tahminlerini görmek için tıklayın.

Haritayı değiştirmek için: yaklaştırmak için siyah artı işaretli yeşil düğmeye ve uzaklaştırmak için de eksi işaretli düğmeye hızla tıklayın; bitişik haritalar için yeşil okları kullanın.


METAR-TAF: